sensor_id;sensor_type;location;lat;lon;timestamp;P1;durP1;ratioP1;P2;durP2;ratioP2
37019;SDS011;22932;52.442;16.896;2022-12-08T12:29:25;20.60;;;15.80;;
37019;SDS011;22932;52.442;16.896;2022-12-08T12:31:59;19.70;;;16.50;;
37019;SDS011;22932;52.442;16.896;2022-12-08T12:34:33;17.80;;;15.70;;
37019;SDS011;22932;52.442;16.896;2022-12-08T12:37:06;19.70;;;16.00;;
37019;SDS011;22932;52.442;16.896;2022-12-08T12:39:46;20.10;;;16.10;;
37019;SDS011;22932;52.442;16.896;2022-12-08T12:42:38;19.30;;;15.60;;
37019;SDS011;22932;52.442;16.896;2022-12-08T12:45:24;19.60;;;15.40;;
37019;SDS011;22932;52.442;16.896;2022-12-08T12:50:47;21.50;;;15.20;;
37019;SDS011;22932;52.442;16.896;2022-12-08T12:59:25;17.20;;;15.40;;
37019;SDS011;22932;52.442;16.896;2022-12-08T13:02:02;17.60;;;15.30;;
37019;SDS011;22932;52.442;16.896;2022-12-08T13:04:42;17.50;;;15.10;;
37019;SDS011;22932;52.442;16.896;2022-12-08T13:07:22;19.20;;;16.20;;
37019;SDS011;22932;52.442;16.896;2022-12-08T13:09:56;20.20;;;17.20;;
37019;SDS011;22932;52.442;16.896;2022-12-08T13:12:29;18.50;;;15.70;;
37019;SDS011;22932;52.442;16.896;2022-12-08T13:15:01;20.40;;;16.00;;
37019;SDS011;22932;52.442;16.896;2022-12-08T13:17:35;18.80;;;15.50;;
37019;SDS011;22932;52.442;16.896;2022-12-08T13:20:16;20.10;;;16.20;;
37019;SDS011;22932;52.442;16.896;2022-12-08T13:22:56;20.20;;;15.90;;
37019;SDS011;22932;52.442;16.896;2022-12-08T13:25:47;21.40;;;16.30;;
37019;SDS011;22932;52.442;16.896;2022-12-08T13:28:23;19.40;;;16.20;;
37019;SDS011;22932;52.442;16.896;2022-12-08T13:30:56;17.60;;;14.70;;
37019;SDS011;22932;52.442;16.896;2022-12-08T13:36:16;17.60;;;15.20;;
37019;SDS011;22932;52.442;16.896;2022-12-08T13:38:49;18.70;;;15.60;;
37019;SDS011;22932;52.442;16.896;2022-12-08T13:41:23;18.00;;;15.60;;
37019;SDS011;22932;52.442;16.896;2022-12-08T13:43:58;20.90;;;16.40;;
37019;SDS011;22932;52.442;16.896;2022-12-08T13:46:33;21.50;;;16.80;;
37019;SDS011;22932;52.442;16.896;2022-12-08T13:49:06;21.80;;;17.40;;
37019;SDS011;22932;52.442;16.896;2022-12-08T13:51:40;18.20;;;16.10;;
37019;SDS011;22932;52.442;16.896;2022-12-08T13:54:16;19.50;;;16.60;;
37019;SDS011;22932;52.442;16.896;2022-12-08T13:56:48;19.60;;;16.30;;
37019;SDS011;22932;52.442;16.896;2022-12-08T13:59:25;19.40;;;16.20;;
37019;SDS011;22932;52.442;16.896;2022-12-08T14:02:00;20.90;;;17.40;;
37019;SDS011;22932;52.442;16.896;2022-12-08T14:04:42;21.40;;;16.50;;
37019;SDS011;22932;52.442;16.896;2022-12-08T14:07:12;22.40;;;16.70;;
37019;SDS011;22932;52.442;16.896;2022-12-08T14:09:43;20.60;;;17.60;;
37019;SDS011;22932;52.442;16.896;2022-12-08T14:12:16;21.00;;;16.80;;
37019;SDS011;22932;52.442;16.896;2022-12-08T14:14:49;23.30;;;17.10;;
37019;SDS011;22932;52.442;16.896;2022-12-08T14:17:32;21.30;;;16.50;;
37019;SDS011;22932;52.442;16.896;2022-12-08T14:20:03;21.10;;;17.80;;
37019;SDS011;22932;52.442;16.896;2022-12-08T14:22:44;22.30;;;17.60;;
37019;SDS011;22932;52.442;16.896;2022-12-08T14:25:15;18.50;;;16.50;;
37019;SDS011;22932;52.442;16.896;2022-12-08T14:27:46;21.80;;;18.00;;
37019;SDS011;22932;52.442;16.896;2022-12-08T14:32:48;22.30;;;17.60;;
37019;SDS011;22932;52.442;16.896;2022-12-08T14:35:21;24.50;;;17.30;;
37019;SDS011;22932;52.442;16.896;2022-12-08T14:37:54;26.40;;;17.90;;
37019;SDS011;22932;52.442;16.896;2022-12-08T14:40:26;23.00;;;17.80;;
37019;SDS011;22932;52.442;16.896;2022-12-08T14:43:11;21.70;;;16.80;;
37019;SDS011;22932;52.442;16.896;2022-12-08T14:45:50;21.40;;;18.10;;
37019;SDS011;22932;52.442;16.896;2022-12-08T14:48:22;21.00;;;17.10;;
37019;SDS011;22932;52.442;16.896;2022-12-08T14:50:57;20.20;;;16.90;;
37019;SDS011;22932;52.442;16.896;2022-12-08T14:53:36;18.40;;;16.40;;
37019;SDS011;22932;52.442;16.896;2022-12-08T14:56:09;21.70;;;18.00;;
37019;SDS011;22932;52.442;16.896;2022-12-08T14:58:45;25.50;;;18.40;;
37019;SDS011;22932;52.442;16.896;2022-12-08T15:01:16;22.20;;;18.20;;
37019;SDS011;22932;52.442;16.896;2022-12-08T15:03:50;24.50;;;19.70;;
37019;SDS011;22932;52.442;16.896;2022-12-08T15:06:21;26.50;;;19.70;;
37019;SDS011;22932;52.442;16.896;2022-12-08T15:08:51;25.20;;;19.60;;
37019;SDS011;22932;52.442;16.896;2022-12-08T15:11:33;26.10;;;20.50;;
37019;SDS011;22932;52.442;16.896;2022-12-08T15:14:23;22.10;;;17.80;;
37019;SDS011;22932;52.442;16.896;2022-12-08T15:16:57;22.20;;;19.10;;
37019;SDS011;22932;52.442;16.896;2022-12-08T15:19:28;22.60;;;17.90;;
37019;SDS011;22932;52.442;16.896;2022-12-08T15:22:01;23.70;;;19.00;;
37019;SDS011;22932;52.442;16.896;2022-12-08T15:24:40;24.30;;;20.00;;
37019;SDS011;22932;52.442;16.896;2022-12-08T15:27:10;27.20;;;21.00;;
37019;SDS011;22932;52.442;16.896;2022-12-08T15:29:46;27.70;;;22.80;;
37019;SDS011;22932;52.442;16.896;2022-12-08T15:32:17;27.70;;;23.40;;
37019;SDS011;22932;52.442;16.896;2022-12-08T15:34:50;28.70;;;23.50;;
37019;SDS011;22932;52.442;16.896;2022-12-08T15:37:20;33.00;;;24.50;;
37019;SDS011;22932;52.442;16.896;2022-12-08T15:39:51;32.30;;;24.40;;
37019;SDS011;22932;52.442;16.896;2022-12-08T15:42:21;30.40;;;24.30;;
37019;SDS011;22932;52.442;16.896;2022-12-08T15:44:51;33.90;;;25.60;;
37019;SDS011;22932;52.442;16.896;2022-12-08T15:47:21;31.70;;;27.20;;
37019;SDS011;22932;52.442;16.896;2022-12-08T15:49:51;31.80;;;25.30;;
37019;SDS011;22932;52.442;16.896;2022-12-08T15:52:21;31.30;;;24.10;;
37019;SDS011;22932;52.442;16.896;2022-12-08T15:54:51;32.30;;;24.50;;
37019;SDS011;22932;52.442;16.896;2022-12-08T15:57:21;31.10;;;23.90;;
37019;SDS011;22932;52.442;16.896;2022-12-08T15:59:53;27.10;;;22.70;;
37019;SDS011;22932;52.442;16.896;2022-12-08T16:02:23;27.20;;;22.10;;
37019;SDS011;22932;52.442;16.896;2022-12-08T16:04:52;31.30;;;22.50;;
37019;SDS011;22932;52.442;16.896;2022-12-08T16:07:22;29.20;;;23.20;;
37019;SDS011;22932;52.442;16.896;2022-12-08T16:09:56;28.80;;;24.20;;
37019;SDS011;22932;52.442;16.896;2022-12-08T16:12:25;27.20;;;22.50;;
37019;SDS011;22932;52.442;16.896;2022-12-08T16:15:13;33.00;;;25.80;;
37019;SDS011;22932;52.442;16.896;2022-12-08T16:17:42;35.60;;;27.50;;
37019;SDS011;22932;52.442;16.896;2022-12-08T16:20:14;33.50;;;26.80;;
37019;SDS011;22932;52.442;16.896;2022-12-08T16:22:45;37.50;;;27.60;;
37019;SDS011;22932;52.442;16.896;2022-12-08T16:25:14;39.30;;;29.00;;
37019;SDS011;22932;52.442;16.896;2022-12-08T16:27:44;38.90;;;29.40;;
37019;SDS011;22932;52.442;16.896;2022-12-08T16:30:15;36.70;;;27.30;;
37019;SDS011;22932;52.442;16.896;2022-12-08T16:32:45;33.60;;;26.90;;
37019;SDS011;22932;52.442;16.896;2022-12-08T16:35:15;33.70;;;24.90;;
37019;SDS011;22932;52.442;16.896;2022-12-08T16:37:44;30.20;;;23.40;;
37019;SDS011;22932;52.442;16.896;2022-12-08T16:40:15;29.50;;;23.10;;
37019;SDS011;22932;52.442;16.896;2022-12-08T16:42:45;25.80;;;20.10;;
37019;SDS011;22932;52.442;16.896;2022-12-08T16:45:16;24.60;;;19.40;;
37019;SDS011;22932;52.442;16.896;2022-12-08T16:47:48;23.60;;;20.00;;
37019;SDS011;22932;52.442;16.896;2022-12-08T16:50:21;26.60;;;21.80;;
37019;SDS011;22932;52.442;16.896;2022-12-08T16:52:55;23.60;;;20.10;;
37019;SDS011;22932;52.442;16.896;2022-12-08T16:55:27;26.30;;;21.50;;
37019;SDS011;22932;52.442;16.896;2022-12-08T16:57:56;32.60;;;23.90;;
37019;SDS011;22932;52.442;16.896;2022-12-08T17:00:26;39.00;;;28.40;;
37019;SDS011;22932;52.442;16.896;2022-12-08T17:03:02;44.40;;;33.00;;
37019;SDS011;22932;52.442;16.896;2022-12-08T17:05:33;42.00;;;31.50;;
37019;SDS011;22932;52.442;16.896;2022-12-08T17:08:06;44.20;;;33.00;;
37019;SDS011;22932;52.442;16.896;2022-12-08T17:10:36;43.90;;;31.40;;
37019;SDS011;22932;52.442;16.896;2022-12-08T17:13:07;38.30;;;29.90;;
37019;SDS011;22932;52.442;16.896;2022-12-08T17:15:38;40.80;;;29.90;;
37019;SDS011;22932;52.442;16.896;2022-12-08T17:18:08;38.00;;;30.10;;
37019;SDS011;22932;52.442;16.896;2022-12-08T17:20:38;40.30;;;30.90;;
37019;SDS011;22932;52.442;16.896;2022-12-08T17:23:07;38.50;;;29.70;;
37019;SDS011;22932;52.442;16.896;2022-12-08T17:25:37;37.70;;;29.00;;
37019;SDS011;22932;52.442;16.896;2022-12-08T17:28:06;40.30;;;31.20;;
37019;SDS011;22932;52.442;16.896;2022-12-08T17:30:36;39.80;;;29.60;;
37019;SDS011;22932;52.442;16.896;2022-12-08T17:33:05;38.10;;;28.90;;
37019;SDS011;22932;52.442;16.896;2022-12-08T17:35:35;39.80;;;29.60;;
37019;SDS011;22932;52.442;16.896;2022-12-08T17:38:04;41.20;;;29.90;;
37019;SDS011;22932;52.442;16.896;2022-12-08T17:40:34;34.60;;;26.80;;
37019;SDS011;22932;52.442;16.896;2022-12-08T17:43:03;34.10;;;26.10;;
37019;SDS011;22932;52.442;16.896;2022-12-08T17:45:33;39.50;;;31.00;;
37019;SDS011;22932;52.442;16.896;2022-12-08T17:48:06;35.50;;;27.20;;
37019;SDS011;22932;52.442;16.896;2022-12-08T17:50:37;34.70;;;28.50;;
37019;SDS011;22932;52.442;16.896;2022-12-08T17:53:08;33.10;;;26.70;;
37019;SDS011;22932;52.442;16.896;2022-12-08T17:55:38;31.60;;;25.70;;
37019;SDS011;22932;52.442;16.896;2022-12-08T17:58:08;31.10;;;25.10;;
37019;SDS011;22932;52.442;16.896;2022-12-08T18:00:37;30.80;;;24.20;;
37019;SDS011;22932;52.442;16.896;2022-12-08T18:03:07;27.90;;;22.70;;
37019;SDS011;22932;52.442;16.896;2022-12-08T18:05:36;23.30;;;18.50;;
37019;SDS011;22932;52.442;16.896;2022-12-08T18:08:06;24.40;;;18.60;;
37019;SDS011;22932;52.442;16.896;2022-12-08T18:10:36;20.60;;;17.10;;
37019;SDS011;22932;52.442;16.896;2022-12-08T18:13:05;22.50;;;17.80;;
37019;SDS011;22932;52.442;16.896;2022-12-08T18:15:36;21.80;;;17.70;;
37019;SDS011;22932;52.442;16.896;2022-12-08T18:18:05;22.20;;;18.40;;
37019;SDS011;22932;52.442;16.896;2022-12-08T18:20:35;22.00;;;16.90;;
37019;SDS011;22932;52.442;16.896;2022-12-08T18:23:04;23.10;;;17.20;;
37019;SDS011;22932;52.442;16.896;2022-12-08T18:25:34;22.60;;;17.70;;
37019;SDS011;22932;52.442;16.896;2022-12-08T18:28:04;20.70;;;17.10;;
37019;SDS011;22932;52.442;16.896;2022-12-08T18:30:35;22.00;;;17.80;;
37019;SDS011;22932;52.442;16.896;2022-12-08T18:33:06;22.80;;;17.40;;
37019;SDS011;22932;52.442;16.896;2022-12-08T18:35:37;24.10;;;18.30;;
37019;SDS011;22932;52.442;16.896;2022-12-08T18:38:06;23.20;;;19.00;;
37019;SDS011;22932;52.442;16.896;2022-12-08T18:40:36;25.40;;;19.20;;
37019;SDS011;22932;52.442;16.896;2022-12-08T18:43:05;27.20;;;20.00;;
37019;SDS011;22932;52.442;16.896;2022-12-08T18:45:35;24.60;;;18.90;;
37019;SDS011;22932;52.442;16.896;2022-12-08T18:48:05;23.70;;;19.10;;
37019;SDS011;22932;52.442;16.896;2022-12-08T18:50:34;22.70;;;18.60;;
37019;SDS011;22932;52.442;16.896;2022-12-08T18:53:08;22.80;;;18.30;;
37019;SDS011;22932;52.442;16.896;2022-12-08T18:55:38;24.40;;;18.50;;
37019;SDS011;22932;52.442;16.896;2022-12-08T18:58:07;21.20;;;18.60;;
37019;SDS011;22932;52.442;16.896;2022-12-08T19:00:39;25.60;;;19.00;;
37019;SDS011;22932;52.442;16.896;2022-12-08T19:03:09;26.50;;;18.80;;
37019;SDS011;22932;52.442;16.896;2022-12-08T19:05:39;26.10;;;19.70;;
37019;SDS011;22932;52.442;16.896;2022-12-08T19:08:08;29.70;;;20.60;;
37019;SDS011;22932;52.442;16.896;2022-12-08T19:10:38;26.40;;;20.50;;
37019;SDS011;22932;52.442;16.896;2022-12-08T19:13:08;30.60;;;21.50;;
37019;SDS011;22932;52.442;16.896;2022-12-08T19:15:38;29.00;;;21.50;;
37019;SDS011;22932;52.442;16.896;2022-12-08T19:18:08;29.10;;;22.90;;
37019;SDS011;22932;52.442;16.896;2022-12-08T19:20:37;30.40;;;22.20;;
37019;SDS011;22932;52.442;16.896;2022-12-08T19:23:07;28.70;;;21.50;;
37019;SDS011;22932;52.442;16.896;2022-12-08T19:25:38;28.70;;;21.60;;
37019;SDS011;22932;52.442;16.896;2022-12-08T19:28:08;31.20;;;22.50;;
37019;SDS011;22932;52.442;16.896;2022-12-08T19:30:37;30.10;;;23.10;;
37019;SDS011;22932;52.442;16.896;2022-12-08T19:33:07;31.10;;;23.40;;
37019;SDS011;22932;52.442;16.896;2022-12-08T19:35:36;30.30;;;24.00;;
37019;SDS011;22932;52.442;16.896;2022-12-08T19:38:06;32.80;;;24.60;;
37019;SDS011;22932;52.442;16.896;2022-12-08T19:40:36;31.30;;;24.20;;
37019;SDS011;22932;52.442;16.896;2022-12-08T19:43:24;31.80;;;24.70;;
37019;SDS011;22932;52.442;16.896;2022-12-08T19:46:12;34.70;;;26.00;;
37019;SDS011;22932;52.442;16.896;2022-12-08T19:48:42;32.50;;;24.30;;
37019;SDS011;22932;52.442;16.896;2022-12-08T19:51:12;34.40;;;25.20;;
37019;SDS011;22932;52.442;16.896;2022-12-08T19:53:42;28.70;;;22.80;;
37019;SDS011;22932;52.442;16.896;2022-12-08T19:56:11;29.50;;;24.10;;
37019;SDS011;22932;52.442;16.896;2022-12-08T19:58:40;30.40;;;24.00;;
37019;SDS011;22932;52.442;16.896;2022-12-08T20:01:10;30.30;;;24.60;;
37019;SDS011;22932;52.442;16.896;2022-12-08T20:03:39;30.90;;;23.90;;
37019;SDS011;22932;52.442;16.896;2022-12-08T20:06:11;34.10;;;26.00;;
37019;SDS011;22932;52.442;16.896;2022-12-08T20:08:43;29.40;;;24.00;;
37019;SDS011;22932;52.442;16.896;2022-12-08T20:11:12;27.80;;;22.50;;
37019;SDS011;22932;52.442;16.896;2022-12-08T20:13:42;29.60;;;22.10;;
37019;SDS011;22932;52.442;16.896;2022-12-08T20:16:13;28.00;;;22.30;;
37019;SDS011;22932;52.442;16.896;2022-12-08T20:18:43;33.10;;;23.00;;
37019;SDS011;22932;52.442;16.896;2022-12-08T20:21:14;29.00;;;23.00;;
37019;SDS011;22932;52.442;16.896;2022-12-08T20:23:43;30.60;;;21.40;;
37019;SDS011;22932;52.442;16.896;2022-12-08T20:26:15;28.80;;;21.60;;
37019;SDS011;22932;52.442;16.896;2022-12-08T20:28:46;27.50;;;21.70;;
37019;SDS011;22932;52.442;16.896;2022-12-08T20:31:19;23.10;;;18.80;;
37019;SDS011;22932;52.442;16.896;2022-12-08T20:33:51;19.80;;;15.90;;
37019;SDS011;22932;52.442;16.896;2022-12-08T20:36:21;17.60;;;14.80;;
37019;SDS011;22932;52.442;16.896;2022-12-08T20:38:51;16.60;;;12.90;;
37019;SDS011;22932;52.442;16.896;2022-12-08T20:41:21;13.10;;;11.40;;
37019;SDS011;22932;52.442;16.896;2022-12-08T20:43:51;9.10;;;8.20;;
37019;SDS011;22932;52.442;16.896;2022-12-08T20:46:20;7.60;;;6.80;;
37019;SDS011;22932;52.442;16.896;2022-12-08T20:48:50;7.70;;;6.60;;
37019;SDS011;22932;52.442;16.896;2022-12-08T20:51:20;6.60;;;6.00;;
37019;SDS011;22932;52.442;16.896;2022-12-08T20:53:49;6.50;;;5.80;;
37019;SDS011;22932;52.442;16.896;2022-12-08T20:56:20;6.20;;;5.60;;
37019;SDS011;22932;52.442;16.896;2022-12-08T20:58:51;5.90;;;4.90;;
37019;SDS011;22932;52.442;16.896;2022-12-08T21:01:22;6.10;;;5.50;;
37019;SDS011;22932;52.442;16.896;2022-12-08T21:03:52;5.80;;;5.30;;
37019;SDS011;22932;52.442;16.896;2022-12-08T21:06:23;6.70;;;6.00;;
37019;SDS011;22932;52.442;16.896;2022-12-08T21:11:21;7.50;;;6.20;;
37019;SDS011;22932;52.442;16.896;2022-12-08T21:13:51;8.40;;;6.90;;
37019;SDS011;22932;52.442;16.896;2022-12-08T21:16:20;7.30;;;6.50;;
37019;SDS011;22932;52.442;16.896;2022-12-08T21:18:50;9.60;;;8.30;;
37019;SDS011;22932;52.442;16.896;2022-12-08T21:21:19;8.70;;;7.20;;
37019;SDS011;22932;52.442;16.896;2022-12-08T21:23:49;11.10;;;8.80;;
37019;SDS011;22932;52.442;16.896;2022-12-08T21:26:19;11.60;;;9.00;;
37019;SDS011;22932;52.442;16.896;2022-12-08T21:28:51;11.20;;;8.40;;
37019;SDS011;22932;52.442;16.896;2022-12-08T21:31:21;11.80;;;9.00;;
37019;SDS011;22932;52.442;16.896;2022-12-08T21:33:52;10.60;;;8.70;;
37019;SDS011;22932;52.442;16.896;2022-12-08T21:36:21;12.10;;;9.50;;
37019;SDS011;22932;52.442;16.896;2022-12-08T21:38:51;9.50;;;8.40;;
37019;SDS011;22932;52.442;16.896;2022-12-08T21:41:22;12.30;;;8.80;;
37019;SDS011;22932;52.442;16.896;2022-12-08T21:44:10;10.70;;;8.50;;
37019;SDS011;22932;52.442;16.896;2022-12-08T21:46:43;10.60;;;9.30;;
37019;SDS011;22932;52.442;16.896;2022-12-08T21:49:13;10.00;;;7.90;;
37019;SDS011;22932;52.442;16.896;2022-12-08T21:51:43;10.80;;;8.60;;
37019;SDS011;22932;52.442;16.896;2022-12-08T21:54:13;8.60;;;7.60;;
37019;SDS011;22932;52.442;16.896;2022-12-08T21:56:43;8.40;;;7.10;;
37019;SDS011;22932;52.442;16.896;2022-12-08T21:59:14;8.60;;;7.70;;
37019;SDS011;22932;52.442;16.896;2022-12-08T22:01:45;7.30;;;6.60;;
37019;SDS011;22932;52.442;16.896;2022-12-08T22:04:16;8.20;;;7.40;;
37019;SDS011;22932;52.442;16.896;2022-12-08T22:06:46;9.70;;;7.40;;
37019;SDS011;22932;52.442;16.896;2022-12-08T22:09:16;7.50;;;6.70;;
37019;SDS011;22932;52.442;16.896;2022-12-08T22:11:46;8.50;;;6.90;;
37019;SDS011;22932;52.442;16.896;2022-12-08T22:14:15;8.40;;;7.30;;
37019;SDS011;22932;52.442;16.896;2022-12-08T22:16:45;8.70;;;7.80;;
37019;SDS011;22932;52.442;16.896;2022-12-08T22:19:14;8.70;;;7.80;;
37019;SDS011;22932;52.442;16.896;2022-12-08T22:21:44;10.10;;;8.40;;
37019;SDS011;22932;52.442;16.896;2022-12-08T22:24:13;8.30;;;7.50;;
37019;SDS011;22932;52.442;16.896;2022-12-08T22:26:43;8.10;;;7.10;;
37019;SDS011;22932;52.442;16.896;2022-12-08T22:29:12;8.80;;;7.90;;
37019;SDS011;22932;52.442;16.896;2022-12-08T22:31:42;10.10;;;7.80;;
37019;SDS011;22932;52.442;16.896;2022-12-08T22:34:11;8.60;;;7.70;;
37019;SDS011;22932;52.442;16.896;2022-12-08T22:36:41;9.90;;;7.90;;
37019;SDS011;22932;52.442;16.896;2022-12-08T22:39:10;9.60;;;8.70;;
37019;SDS011;22932;52.442;16.896;2022-12-08T22:41:40;10.10;;;9.10;;
37019;SDS011;22932;52.442;16.896;2022-12-08T22:44:10;15.10;;;11.00;;
37019;SDS011;22932;52.442;16.896;2022-12-08T22:46:40;12.60;;;11.00;;
37019;SDS011;22932;52.442;16.896;2022-12-08T22:49:10;13.70;;;11.30;;
37019;SDS011;22932;52.442;16.896;2022-12-08T22:51:39;11.90;;;10.50;;
37019;SDS011;22932;52.442;16.896;2022-12-08T22:54:09;11.70;;;10.20;;
37019;SDS011;22932;52.442;16.896;2022-12-08T22:56:39;12.70;;;11.00;;
37019;SDS011;22932;52.442;16.896;2022-12-08T22:59:08;11.60;;;10.30;;
37019;SDS011;22932;52.442;16.896;2022-12-08T23:01:38;13.00;;;11.10;;
37019;SDS011;22932;52.442;16.896;2022-12-08T23:04:07;12.30;;;10.40;;
37019;SDS011;22932;52.442;16.896;2022-12-08T23:06:37;12.20;;;9.80;;
37019;SDS011;22932;52.442;16.896;2022-12-08T23:09:07;13.00;;;11.40;;
37019;SDS011;22932;52.442;16.896;2022-12-08T23:11:36;11.80;;;9.60;;
37019;SDS011;22932;52.442;16.896;2022-12-08T23:14:06;14.00;;;10.90;;
37019;SDS011;22932;52.442;16.896;2022-12-08T23:16:35;11.20;;;9.60;;
37019;SDS011;22932;52.442;16.896;2022-12-08T23:19:05;10.00;;;9.00;;
37019;SDS011;22932;52.442;16.896;2022-12-08T23:21:34;13.10;;;10.60;;
37019;SDS011;22932;52.442;16.896;2022-12-08T23:24:04;11.30;;;9.60;;
37019;SDS011;22932;52.442;16.896;2022-12-08T23:26:34;12.60;;;10.00;;
37019;SDS011;22932;52.442;16.896;2022-12-08T23:29:04;10.40;;;9.20;;
37019;SDS011;22932;52.442;16.896;2022-12-08T23:31:33;11.30;;;10.10;;
37019;SDS011;22932;52.442;16.896;2022-12-08T23:34:03;13.00;;;11.00;;
37019;SDS011;22932;52.442;16.896;2022-12-08T23:36:32;12.80;;;11.00;;
37019;SDS011;22932;52.442;16.896;2022-12-08T23:39:02;13.80;;;11.40;;
37019;SDS011;22932;52.442;16.896;2022-12-08T23:41:32;15.00;;;11.10;;
37019;SDS011;22932;52.442;16.896;2022-12-08T23:44:02;14.60;;;12.20;;
37019;SDS011;22932;52.442;16.896;2022-12-08T23:46:31;14.90;;;12.40;;
37019;SDS011;22932;52.442;16.896;2022-12-08T23:49:01;15.60;;;12.10;;
37019;SDS011;22932;52.442;16.896;2022-12-08T23:51:30;15.40;;;12.90;;
37019;SDS011;22932;52.442;16.896;2022-12-08T23:54:00;16.10;;;12.50;;
37019;SDS011;22932;52.442;16.896;2022-12-08T23:56:31;18.00;;;13.50;;
37019;SDS011;22932;52.442;16.896;2022-12-08T23:59:01;16.20;;;13.30;;
